createdAt,value
2019-02-12T00:01:06.270Z,5.50
2019-02-12T00:03:35.353Z,6.40
2019-02-12T00:06:04.385Z,6.30
2019-02-12T00:08:33.331Z,5.57
2019-02-12T00:11:02.316Z,6.30
2019-02-12T00:13:31.349Z,6.40
2019-02-12T00:16:00.430Z,6.77
2019-02-12T00:18:29.421Z,5.73
2019-02-12T00:20:58.447Z,6.10
2019-02-12T00:23:27.459Z,6.07
2019-02-12T00:25:56.450Z,5.50
2019-02-12T00:28:25.478Z,5.53
2019-02-12T00:30:54.445Z,6.70
2019-02-12T00:33:23.439Z,5.27
2019-02-12T00:35:52.506Z,6.00
2019-02-12T00:38:21.443Z,6.13
2019-02-12T00:40:50.458Z,5.30
2019-02-12T00:43:19.476Z,5.00
2019-02-12T00:45:48.474Z,6.20
2019-02-12T00:48:17.375Z,5.27
2019-02-12T00:50:49.674Z,5.33
2019-02-12T00:53:18.734Z,5.80
2019-02-12T00:55:47.815Z,5.57
2019-02-12T00:58:19.771Z,6.63
2019-02-12T01:00:48.833Z,4.80
2019-02-12T01:03:17.760Z,4.83
2019-02-12T01:05:46.819Z,5.43
2019-02-12T01:08:15.888Z,4.70
2019-02-12T01:10:45.217Z,5.83
2019-02-12T01:13:14.324Z,5.43
2019-02-12T01:15:43.320Z,5.33
2019-02-12T01:18:12.258Z,5.03
2019-02-12T01:20:41.261Z,5.13
2019-02-12T01:23:10.273Z,5.20
2019-02-12T01:25:39.200Z,5.43
2019-02-12T01:28:08.091Z,5.50
2019-02-12T01:30:37.102Z,5.00
2019-02-12T01:33:06.259Z,4.37
2019-02-12T01:35:35.235Z,5.30
2019-02-12T01:38:04.397Z,6.13
2019-02-12T01:40:33.244Z,4.73
2019-02-12T01:43:05.297Z,5.07
2019-02-12T01:45:34.313Z,5.00
2019-02-12T01:48:03.348Z,5.10
2019-02-12T01:50:32.388Z,4.20
2019-02-12T01:53:01.470Z,5.03
2019-02-12T01:55:30.572Z,4.63
2019-02-12T01:57:59.601Z,6.27
2019-02-12T02:00:28.624Z,4.93
2019-02-12T02:02:57.651Z,5.50
2019-02-12T02:05:26.754Z,5.43
2019-02-12T02:07:55.734Z,6.27
2019-02-12T02:10:24.744Z,5.60
2019-02-12T02:12:56.646Z,5.60
2019-02-12T02:15:25.631Z,5.13
2019-02-12T02:17:54.704Z,5.37
2019-02-12T02:20:23.844Z,5.53
2019-02-12T02:22:52.745Z,5.70
2019-02-12T02:25:21.734Z,5.33
2019-02-12T02:27:50.773Z,5.33
2019-02-12T02:30:19.696Z,4.80
2019-02-12T02:32:48.690Z,4.63
2019-02-12T02:35:17.663Z,4.70
2019-02-12T02:37:46.760Z,4.23
2019-02-12T02:40:15.692Z,4.80
2019-02-12T02:42:44.652Z,4.70
2019-02-12T02:45:13.717Z,5.47
2019-02-12T02:47:42.807Z,4.87
2019-02-12T02:50:11.969Z,4.27
2019-02-12T02:52:40.969Z,5.17
2019-02-12T02:55:09.953Z,4.97
2019-02-12T02:57:39.333Z,4.27
2019-02-12T03:00:09.143Z,5.00
2019-02-12T03:02:38.287Z,5.03
2019-02-12T03:05:08.919Z,5.17
2019-02-12T03:07:37.930Z,5.50
2019-02-12T03:10:07.274Z,4.90
2019-02-12T03:12:36.358Z,4.83
2019-02-12T03:15:05.896Z,4.50
2019-02-12T03:17:34.777Z,4.90
2019-02-12T03:20:04.245Z,5.63
2019-02-12T03:22:33.251Z,5.67
2019-02-12T03:25:02.371Z,4.23
2019-02-12T03:27:31.418Z,4.40
2019-02-12T03:30:00.567Z,5.87
2019-02-12T03:32:29.882Z,5.23
2019-02-12T03:34:58.906Z,5.10
2019-02-12T03:37:27.835Z,5.00
2019-02-12T03:39:56.841Z,5.03
2019-02-12T03:42:26.026Z,4.40
2019-02-12T03:44:55.005Z,5.70
2019-02-12T03:47:24.016Z,4.97
2019-02-12T03:49:53.182Z,4.67
2019-02-12T03:52:22.311Z,5.37
2019-02-12T03:54:51.404Z,4.90
2019-02-12T03:57:20.358Z,5.13
2019-02-12T03:59:49.292Z,5.20
2019-02-12T04:02:18.376Z,5.80
2019-02-12T04:04:47.474Z,5.50
2019-02-12T04:07:16.414Z,6.03
2019-02-12T04:09:45.443Z,5.30
2019-02-12T04:12:14.484Z,5.70
2019-02-12T04:14:43.728Z,6.90
2019-02-12T04:17:12.786Z,6.00
2019-02-12T04:19:41.930Z,6.20
2019-02-12T04:22:10.942Z,6.73
2019-02-12T04:24:39.979Z,6.07
2019-02-12T04:27:09.015Z,7.13
2019-02-12T04:29:38.088Z,7.43
2019-02-12T04:32:07.042Z,6.93
2019-02-12T04:34:36.226Z,7.03
2019-02-12T04:37:05.315Z,6.80
2019-02-12T04:39:34.398Z,7.43
2019-02-12T04:42:03.453Z,6.27
2019-02-12T04:44:32.457Z,7.37
2019-02-12T04:47:01.526Z,6.77
2019-02-12T04:49:30.647Z,6.87
2019-02-12T04:51:59.661Z,6.67
2019-02-12T04:54:28.673Z,7.67
2019-02-12T04:56:57.772Z,8.07
2019-02-12T04:59:26.762Z,7.47
2019-02-12T05:01:55.695Z,6.67
2019-02-12T05:04:24.784Z,6.63
2019-02-12T05:06:53.789Z,7.93
2019-02-12T05:09:23.398Z,7.00
2019-02-12T05:11:54.961Z,7.37
2019-02-12T05:14:24.019Z,7.23
2019-02-12T05:16:53.056Z,7.63
2019-02-12T05:19:22.021Z,8.53
2019-02-12T05:21:51.106Z,7.50
2019-02-12T05:24:20.034Z,8.30
2019-02-12T05:26:49.076Z,7.67
2019-02-12T05:29:18.480Z,7.27
2019-02-12T05:31:47.713Z,6.67
2019-02-12T05:34:16.809Z,8.23
2019-02-12T05:36:45.789Z,7.83
2019-02-12T05:39:14.844Z,7.77
2019-02-12T05:41:43.901Z,7.70
2019-02-12T05:44:12.887Z,8.87
2019-02-12T05:46:41.901Z,7.30
2019-02-12T05:49:11.039Z,7.37
2019-02-12T05:51:39.985Z,8.17
2019-02-12T05:54:08.929Z,7.03
2019-02-12T05:56:37.981Z,7.40
2019-02-12T05:59:07.009Z,7.47
2019-02-12T06:01:36.237Z,7.20
2019-02-12T06:04:05.277Z,7.70
2019-02-12T06:06:34.279Z,6.50
2019-02-12T06:09:04.074Z,8.57
2019-02-12T06:11:33.050Z,6.67
2019-02-12T06:14:02.113Z,7.23
2019-02-12T06:16:31.117Z,7.30
2019-02-12T06:19:00.246Z,7.60
2019-02-12T06:21:29.252Z,7.63
2019-02-12T06:23:58.417Z,7.43
2019-02-12T06:26:27.729Z,8.07
2019-02-12T06:28:56.770Z,6.87
2019-02-12T06:31:26.253Z,7.60
2019-02-12T06:33:55.361Z,8.67
2019-02-12T06:36:24.366Z,8.30
2019-02-12T06:38:53.392Z,8.43
2019-02-12T06:41:22.542Z,8.37
2019-02-12T06:43:51.462Z,7.40
2019-02-12T06:46:20.418Z,7.67
2019-02-12T06:48:52.557Z,7.70
2019-02-12T06:51:21.694Z,7.97
2019-02-12T06:53:50.654Z,6.93
2019-02-12T06:56:19.610Z,7.50
2019-02-12T06:58:48.612Z,7.50
2019-02-12T07:01:17.720Z,7.17
2019-02-12T07:04:05.374Z,7.03
2019-02-12T07:07:15.668Z,6.67
2019-02-12T07:10:15.273Z,7.57
2019-02-12T07:13:31.310Z,6.20
2019-02-12T07:16:41.451Z,6.60
2019-02-12T07:19:36.284Z,6.23
2019-02-12T07:22:47.765Z,5.50
2019-02-12T07:25:50.045Z,6.73
2019-02-12T07:29:03.278Z,6.17
2019-02-12T07:32:13.063Z,6.60
2019-02-12T07:35:00.322Z,5.90
2019-02-12T07:37:51.180Z,6.83
2019-02-12T07:40:31.191Z,6.00
2019-02-12T07:43:55.541Z,7.17
2019-02-12T07:47:00.316Z,6.10
2019-02-12T07:50:11.079Z,5.63
2019-02-12T07:52:56.285Z,5.70
2019-02-12T07:56:17.908Z,4.87
2019-02-12T07:59:27.230Z,4.87
2019-02-12T08:02:48.972Z,4.43
2019-02-12T08:05:48.759Z,3.70
2019-02-12T08:09:06.094Z,4.07
2019-02-12T08:11:47.048Z,3.50
2019-02-12T08:15:07.854Z,4.43
2019-02-12T08:18:05.472Z,4.63
2019-02-12T08:21:11.404Z,4.20
2019-02-12T08:23:48.137Z,3.67
2019-02-12T08:26:30.755Z,4.70
2019-02-12T08:29:50.455Z,3.70
2019-02-12T08:32:45.310Z,4.10
2019-02-12T08:35:46.174Z,4.00
2019-02-12T08:38:27.202Z,3.83
2019-02-12T08:41:38.780Z,3.90
2019-02-12T08:44:21.224Z,4.60
2019-02-12T08:47:38.272Z,4.67
2019-02-12T08:50:45.286Z,4.10
2019-02-12T08:54:04.887Z,4.17
2019-02-12T08:56:51.792Z,5.00
2019-02-12T08:59:48.670Z,4.47
2019-02-12T09:03:04.301Z,4.13
2019-02-12T09:05:55.193Z,4.13
2019-02-12T09:08:32.844Z,4.20
2019-02-12T09:11:39.043Z,4.17
2019-02-12T09:14:29.898Z,4.50
2019-02-12T09:17:45.857Z,5.43
2019-02-12T09:20:36.885Z,4.63
2019-02-12T09:23:42.873Z,4.03
2019-02-12T09:27:14.571Z,4.20
2019-02-12T09:30:07.833Z,4.57
2019-02-12T09:33:05.638Z,5.43
2019-02-12T09:36:20.987Z,4.40
2019-02-12T09:39:20.263Z,5.53
2019-02-12T09:42:48.795Z,4.70
2019-02-12T09:45:48.603Z,4.77
2019-02-12T09:48:30.590Z,5.03
2019-02-12T09:51:31.888Z,5.60
2019-02-12T09:54:48.356Z,5.10
2019-02-12T09:57:55.223Z,5.63
2019-02-12T10:00:46.496Z,5.43
2019-02-12T10:03:43.768Z,5.97
2019-02-12T10:06:38.326Z,6.80
2019-02-12T10:09:38.742Z,5.27
2019-02-12T10:12:42.114Z,5.90
2019-02-12T10:15:43.432Z,5.93
2019-02-12T10:18:24.030Z,5.63
2019-02-12T10:21:28.350Z,5.43
2019-02-12T10:24:37.211Z,5.00
2019-02-12T10:27:41.252Z,6.20
2019-02-12T10:30:30.430Z,5.73
2019-02-12T10:32:59.410Z,6.87
2019-02-12T10:35:47.575Z,6.47
2019-02-12T10:38:16.473Z,6.07
2019-02-12T10:40:45.551Z,6.03
2019-02-12T10:43:14.560Z,6.37
2019-02-12T10:45:46.240Z,6.73
2019-02-12T10:48:15.239Z,6.20
2019-02-12T10:50:44.245Z,6.63
2019-02-12T10:53:13.385Z,7.77
2019-02-12T10:55:42.393Z,6.67
2019-02-12T10:58:11.404Z,8.07
2019-02-12T11:00:40.377Z,8.40
2019-02-12T11:03:09.456Z,6.73
2019-02-12T11:05:38.549Z,8.13
2019-02-12T11:08:07.777Z,10.00
2019-02-12T11:10:36.725Z,7.10
2019-02-12T11:13:05.803Z,7.70
2019-02-12T11:15:34.946Z,7.67
2019-02-12T11:18:03.971Z,7.10
2019-02-12T11:20:33.123Z,8.10
2019-02-12T11:23:02.081Z,6.70
2019-02-12T11:25:31.178Z,7.97
2019-02-12T11:28:03.283Z,7.80
2019-02-12T11:30:32.303Z,8.73
2019-02-12T11:33:01.291Z,7.53
2019-02-12T11:35:30.299Z,7.33
2019-02-12T11:37:59.314Z,8.27
2019-02-12T11:40:28.440Z,8.53
2019-02-12T11:42:57.422Z,9.10
2019-02-12T11:45:26.390Z,10.03
2019-02-12T11:47:55.397Z,8.03
2019-02-12T11:50:24.400Z,8.97
2019-02-12T11:52:53.460Z,8.03
2019-02-12T11:55:22.505Z,9.80
2019-02-12T11:57:51.516Z,9.33
2019-02-12T12:00:25.935Z,9.87
2019-02-12T12:02:54.930Z,8.80
2019-02-12T12:05:23.951Z,10.00
2019-02-12T12:07:52.995Z,9.43
2019-02-12T12:10:22.071Z,9.67
2019-02-12T12:12:50.994Z,10.37
2019-02-12T12:15:20.101Z,9.93
2019-02-12T12:17:49.104Z,11.30
2019-02-12T12:20:18.025Z,11.83
2019-02-12T12:22:47.005Z,10.90
2019-02-12T12:25:16.085Z,11.33
2019-02-12T12:27:45.059Z,11.80
2019-02-12T12:30:14.161Z,11.67
2019-02-12T12:32:43.177Z,10.47
2019-02-12T12:35:12.382Z,11.43
2019-02-12T12:37:41.511Z,11.87
2019-02-12T12:40:10.592Z,11.17
2019-02-12T12:42:39.631Z,11.20
2019-02-12T12:45:09.418Z,11.60
2019-02-12T12:47:38.396Z,11.27
2019-02-12T12:50:08.722Z,11.77
2019-02-12T12:52:37.818Z,11.50
2019-02-12T12:55:06.961Z,11.57
2019-02-12T12:57:41.568Z,11.43
2019-02-12T13:00:08.355Z,11.57
2019-02-12T13:02:37.569Z,11.40
2019-02-12T13:05:07.982Z,11.50
2019-02-12T13:07:37.064Z,12.23
2019-02-12T13:10:07.942Z,10.80
2019-02-12T13:12:37.053Z,11.17
2019-02-12T13:15:06.942Z,11.63
2019-02-12T13:17:36.054Z,10.47
2019-02-12T13:20:06.138Z,11.23
2019-02-12T13:22:35.162Z,11.33
2019-02-12T13:25:08.668Z,10.40
2019-02-12T13:27:35.087Z,10.57
2019-02-12T13:30:04.632Z,10.63
2019-02-12T13:32:33.726Z,11.03
2019-02-12T13:35:02.796Z,10.83
2019-02-12T13:37:31.787Z,10.83
2019-02-12T13:40:00.809Z,10.37
2019-02-12T13:42:29.903Z,11.23
2019-02-12T13:44:58.935Z,10.73
2019-02-12T13:47:27.929Z,11.70
2019-02-12T13:49:56.913Z,12.47
2019-02-12T13:52:25.943Z,11.77
2019-02-12T13:55:17.368Z,11.07
2019-02-12T13:57:44.860Z,11.60
2019-02-12T14:00:15.052Z,11.63
2019-02-12T14:02:44.083Z,12.83
2019-02-12T14:05:15.382Z,11.10
2019-02-12T14:07:44.564Z,11.03
2019-02-12T14:10:13.734Z,10.83
2019-02-12T14:12:42.873Z,11.30
2019-02-12T14:15:12.405Z,12.27
2019-02-12T14:17:41.426Z,11.20
2019-02-12T14:20:12.230Z,11.17
2019-02-12T14:22:41.260Z,11.73
2019-02-12T14:25:10.792Z,11.30
2019-02-12T14:27:39.920Z,10.93
2019-02-12T14:30:10.760Z,10.93
2019-02-12T14:32:40.827Z,11.83
2019-02-12T14:35:10.482Z,11.10
2019-02-12T14:37:39.550Z,11.53
2019-02-12T14:40:09.636Z,11.90
2019-02-12T14:42:38.930Z,10.70
2019-02-12T14:45:09.928Z,10.07
2019-02-12T14:47:38.998Z,10.30
2019-02-12T14:50:09.467Z,10.57
2019-02-12T14:52:38.546Z,11.17
2019-02-12T14:55:07.643Z,10.43
2019-02-12T14:57:36.801Z,10.93
2019-02-12T15:00:06.757Z,10.27
2019-02-12T15:02:35.785Z,9.40
2019-02-12T15:05:05.171Z,10.53
2019-02-12T15:07:34.171Z,9.87
2019-02-12T15:10:03.181Z,10.53
2019-02-12T15:12:32.231Z,10.20
2019-02-12T15:15:04.157Z,11.20
2019-02-12T15:17:33.181Z,10.10
2019-02-12T15:20:02.209Z,10.40
2019-02-12T15:22:31.309Z,10.30
2019-02-12T15:25:00.401Z,9.70
2019-02-12T15:27:29.518Z,10.00
2019-02-12T15:29:58.443Z,10.80
2019-02-12T15:32:27.456Z,10.33
2019-02-12T15:34:56.679Z,11.03
2019-02-12T15:37:25.699Z,10.77
2019-02-12T15:39:55.664Z,9.60
2019-02-12T15:42:24.889Z,9.77
2019-02-12T15:44:53.924Z,9.97
2019-02-12T15:47:23.000Z,8.67
2019-02-12T15:49:52.048Z,8.83
2019-02-12T15:52:21.063Z,9.17
2019-02-12T15:54:50.238Z,7.90
2019-02-12T15:57:19.284Z,8.93
2019-02-12T15:59:48.232Z,9.20
2019-02-12T16:02:17.302Z,8.70
2019-02-12T16:04:48.179Z,9.27
2019-02-12T16:07:17.079Z,8.33
2019-02-12T16:09:46.172Z,7.83
2019-02-12T16:12:15.262Z,8.30
2019-02-12T16:14:44.600Z,7.40
2019-02-12T16:17:16.557Z,7.27
2019-02-12T16:19:47.088Z,7.33
2019-02-12T16:22:17.349Z,7.43
2019-02-12T16:24:46.312Z,6.77
2019-02-12T16:27:15.299Z,7.40
2019-02-12T16:29:44.403Z,7.13
2019-02-12T16:32:13.382Z,7.63
2019-02-12T16:34:42.504Z,7.93
2019-02-12T16:37:11.614Z,7.13
2019-02-12T16:39:40.529Z,8.07
2019-02-12T16:42:09.647Z,8.90
2019-02-12T16:44:38.747Z,9.27
2019-02-12T16:47:07.885Z,9.33
2019-02-12T16:49:36.921Z,10.27
2019-02-12T16:52:06.175Z,12.93
2019-02-12T16:54:35.251Z,12.60
2019-02-12T16:57:04.466Z,14.40
2019-02-12T16:59:33.482Z,13.30
2019-02-12T17:02:02.475Z,13.20
2019-02-12T17:04:31.601Z,14.83
2019-02-12T17:07:00.706Z,15.43
2019-02-12T17:09:29.717Z,16.40
2019-02-12T17:11:58.805Z,16.37
2019-02-12T17:14:27.894Z,15.00
2019-02-12T17:16:56.980Z,18.30
2019-02-12T17:19:25.981Z,16.27
2019-02-12T17:21:54.983Z,15.63
2019-02-12T17:24:24.008Z,15.87
2019-02-12T17:26:53.062Z,16.37
2019-02-12T17:29:22.206Z,16.57
2019-02-12T17:31:51.304Z,15.70
2019-02-12T17:34:20.400Z,16.33
2019-02-12T17:36:49.428Z,16.20
2019-02-12T17:39:20.154Z,16.90
2019-02-12T17:41:49.330Z,17.73
2019-02-12T17:44:18.758Z,16.10
2019-02-12T17:46:47.856Z,16.07
2019-02-12T17:49:16.945Z,16.00
2019-02-12T17:51:46.359Z,15.37
2019-02-12T17:54:16.011Z,16.63
2019-02-12T17:56:45.456Z,16.30
2019-02-12T17:59:14.725Z,17.57
2019-02-12T18:01:43.847Z,18.37
2019-02-12T18:04:13.047Z,16.37
2019-02-12T18:06:42.095Z,14.73
2019-02-12T18:09:11.181Z,16.17
2019-02-12T18:11:40.338Z,16.13
2019-02-12T18:14:09.507Z,16.93
2019-02-12T18:16:38.521Z,16.70
2019-02-12T18:19:10.499Z,16.07
2019-02-12T18:21:39.733Z,16.10
2019-02-12T18:24:08.884Z,16.30
2019-02-12T18:26:38.013Z,15.97
2019-02-12T18:29:07.548Z,16.13
2019-02-12T18:31:36.771Z,16.33
2019-02-12T18:34:06.042Z,16.90
2019-02-12T18:36:35.189Z,16.13
2019-02-12T18:39:05.110Z,15.93
2019-02-12T18:41:39.668Z,16.53
2019-02-12T18:44:08.926Z,15.77
2019-02-12T18:46:37.979Z,15.77
2019-02-12T18:49:07.096Z,16.03
2019-02-12T18:51:36.144Z,14.70
2019-02-12T18:54:05.270Z,15.73
2019-02-12T18:56:41.406Z,15.10
2019-02-12T18:59:05.167Z,15.63
2019-02-12T19:01:34.328Z,15.50
2019-02-12T19:04:03.434Z,14.60
2019-02-12T19:06:32.502Z,16.80
2019-02-12T19:09:01.436Z,15.40
2019-02-12T19:11:30.692Z,16.33
2019-02-12T19:13:59.820Z,16.50
2019-02-12T19:16:28.956Z,15.10
2019-02-12T19:18:58.052Z,15.33
2019-02-12T19:21:27.248Z,15.23
2019-02-12T19:23:56.370Z,17.77
2019-02-12T19:26:25.543Z,15.17
2019-02-12T19:28:54.678Z,16.17
2019-02-12T19:31:23.753Z,15.60
2019-02-12T19:33:52.828Z,15.33
2019-02-12T19:36:21.912Z,16.50
2019-02-12T19:38:50.967Z,17.40
2019-02-12T19:41:20.069Z,15.60
2019-02-12T19:43:49.160Z,16.70
2019-02-12T19:46:18.238Z,16.53
2019-02-12T19:48:47.440Z,16.07
2019-02-12T19:51:16.579Z,16.20
2019-02-12T19:53:47.533Z,16.93
2019-02-12T19:56:16.886Z,16.60
2019-02-12T19:58:45.922Z,17.13
2019-02-12T20:01:16.666Z,16.77
2019-02-12T20:03:45.911Z,18.07
2019-02-12T20:06:15.022Z,18.07
2019-02-12T20:08:44.251Z,18.33
2019-02-12T20:11:13.534Z,16.87
2019-02-12T20:13:42.504Z,17.40
2019-02-12T20:16:11.537Z,17.77
2019-02-12T20:18:40.722Z,17.13
2019-02-12T20:21:10.163Z,17.30
2019-02-12T20:23:39.286Z,17.20
2019-02-12T20:26:08.376Z,18.17
2019-02-12T20:28:37.422Z,17.50
2019-02-12T20:31:06.822Z,16.17
2019-02-12T20:33:37.914Z,16.93
2019-02-12T20:36:06.819Z,16.40
2019-02-12T20:38:35.914Z,17.30
2019-02-12T20:41:05.310Z,17.67
2019-02-12T20:43:34.384Z,17.10
2019-02-12T20:46:03.633Z,17.23
2019-02-12T20:48:32.852Z,18.27
2019-02-12T20:51:01.948Z,18.00
2019-02-12T20:53:30.997Z,17.83
2019-02-12T20:56:00.118Z,16.57
2019-02-12T20:58:29.247Z,17.80
2019-02-12T21:00:58.285Z,17.47
2019-02-12T21:03:27.339Z,17.27
2019-02-12T21:05:56.305Z,17.47
2019-02-12T21:08:25.543Z,17.90
2019-02-12T21:10:54.613Z,17.73
2019-02-12T21:13:23.643Z,18.60
2019-02-12T21:15:52.588Z,17.57
2019-02-12T21:18:21.645Z,19.07
2019-02-12T21:20:53.865Z,18.13
2019-02-12T21:23:22.987Z,18.07
2019-02-12T21:25:52.092Z,18.70
2019-02-12T21:28:21.123Z,17.40
2019-02-12T21:30:50.219Z,17.37
2019-02-12T21:33:19.295Z,18.20
2019-02-12T21:35:48.400Z,19.43
2019-02-12T21:38:19.430Z,18.27
2019-02-12T21:40:48.535Z,18.83
2019-02-12T21:43:17.743Z,20.07
2019-02-12T21:45:46.770Z,19.73
2019-02-12T21:48:15.810Z,18.83
2019-02-12T21:50:44.900Z,20.57
2019-02-12T21:53:14.046Z,20.13
2019-02-12T21:55:43.176Z,19.47
2019-02-12T21:58:12.194Z,20.10
2019-02-12T22:00:43.538Z,19.70
2019-02-12T22:03:12.714Z,19.77
2019-02-12T22:05:41.630Z,20.73
2019-02-12T22:08:13.423Z,19.73
2019-02-12T22:10:46.501Z,19.83
2019-02-12T22:13:14.670Z,20.27
2019-02-12T22:15:43.783Z,21.57
2019-02-12T22:18:12.913Z,20.13
2019-02-12T22:20:43.194Z,18.83
2019-02-12T22:23:12.260Z,19.93
2019-02-12T22:25:41.353Z,20.73
2019-02-12T22:28:10.399Z,19.83
2019-02-12T22:30:39.586Z,21.67
2019-02-12T22:33:08.631Z,20.97
2019-02-12T22:35:38.815Z,19.27
2019-02-12T22:38:07.773Z,20.67
2019-02-12T22:40:36.871Z,21.00
2019-02-12T22:43:05.947Z,20.90
2019-02-12T22:45:34.979Z,21.00
2019-02-12T22:48:04.073Z,19.87
2019-02-12T22:50:33.165Z,20.60
2019-02-12T22:53:02.241Z,20.83
2019-02-12T22:55:31.190Z,20.77
2019-02-12T22:58:00.202Z,20.63
2019-02-12T23:01:11.393Z,20.77
2019-02-12T23:03:40.507Z,21.47
2019-02-12T23:06:09.574Z,20.23
2019-02-12T23:08:38.541Z,21.10
2019-02-12T23:11:07.704Z,21.67
2019-02-12T23:13:36.841Z,19.80
2019-02-12T23:16:05.947Z,22.33
2019-02-12T23:18:35.016Z,21.37
2019-02-12T23:21:04.108Z,20.27
2019-02-12T23:23:33.132Z,20.17
2019-02-12T23:26:02.232Z,20.17
2019-02-12T23:28:31.727Z,21.80
2019-02-12T23:31:00.805Z,21.00
2019-02-12T23:33:29.894Z,21.27
2019-02-12T23:35:58.826Z,21.73
2019-02-12T23:38:27.961Z,21.13
2019-02-12T23:40:56.938Z,20.17
2019-02-12T23:43:26.002Z,21.23
2019-02-12T23:45:58.127Z,21.43
2019-02-12T23:48:27.204Z,21.50
2019-02-12T23:50:56.275Z,21.53
2019-02-12T23:53:25.314Z,22.63
2019-02-12T23:55:54.277Z,21.60
2019-02-12T23:58:23.205Z,21.60
